Time;durP1;ratioP1;P1;durP2;ratioP2;P2;SDS_P1;SDS_P2;PMS_P1;PMS_P2;Temp;Humidity;BMP_temperature;BMP_pressure;BME280_temperature;BME280_humidity;BME280_pressure;Samples;Min_cycle;Max_cycle;Signal;HPM_P1;HPM_P2
2022/01/30 00:00:48;;;;;;;;;;;19.20;58.10;;;;;;5052684;28;1201;-71
2022/01/30 00:03:15;;;;;;;;;;;19.30;58.10;;;;;;5051513;28;1194;-71
2022/01/30 00:05:40;;;;;;;;;;;19.30;58.20;;;;;;5035031;28;1412;-71
2022/01/30 00:08:06;;;;;;;;;;;19.20;58.20;;;;;;5048723;28;1182;-71
2022/01/30 00:10:37;;;;;;;;;;;19.20;58.20;;;;;;5052671;28;992;-70
2022/01/30 00:13:04;;;;;;;;;;;19.20;58.20;;;;;;5052871;28;1635;-71
2022/01/30 00:15:40;;;;;;;;;;;19.20;58.20;;;;;;5052872;28;1902;-70
2022/01/30 00:18:41;;;;;;;;;;;19.20;58.20;;;;;;5052874;28;1186;-68
2022/01/30 00:23:28;;;;;;;;;;;19.20;58.30;;;;;;5053122;28;1657;-69
2022/01/30 00:25:56;;;;;;;;;;;19.20;58.30;;;;;;5051717;28;1467;-69
2022/01/30 00:28:24;;;;;;;;;;;19.20;58.30;;;;;;5052532;28;1620;-69
2022/01/30 00:30:49;;;;;;;;;;;19.10;58.30;;;;;;5055030;28;1561;-69
2022/01/30 00:33:15;;;;;;;;;;;19.20;58.30;;;;;;5055595;28;1400;-69
2022/01/30 00:35:40;;;;;;;;;;;19.10;58.30;;;;;;5056162;28;1957;-69
2022/01/30 00:38:07;;;;;;;;;;;19.20;58.40;;;;;;5056575;28;1414;-71
2022/01/30 00:40:32;;;;;;;;;;;19.20;58.40;;;;;;5055121;28;1419;-72
2022/01/30 00:42:57;;;;;;;;;;;19.20;58.40;;;;;;5056512;28;1466;-72
2022/01/30 00:45:24;;;;;;;;;;;19.20;58.50;;;;;;5055286;28;1748;-72
2022/01/30 00:47:49;;;;;;;;;;;19.20;58.40;;;;;;5055087;28;1635;-71
2022/01/30 00:50:14;;;;;;;;;;;19.10;58.40;;;;;;5056061;28;1047;-70
2022/01/30 00:52:40;;;;;;;;;;;19.10;58.40;;;;;;5056163;28;1666;-72
2022/01/30 00:55:05;;;;;;;;;;;19.10;58.40;;;;;;5056012;28;1898;-69
2022/01/30 00:57:31;;;;;;;;;;;19.10;58.40;;;;;;5056054;28;1360;-71
2022/01/30 00:59:56;;;;;;;;;;;19.10;58.40;;;;;;5052831;28;1714;-71
2022/01/30 01:02:22;;;;;;;;;;;19.10;58.50;;;;;;5050120;28;1689;-70
2022/01/30 01:04:47;;;;;;;;;;;19.10;58.50;;;;;;5054685;28;1710;-71
2022/01/30 01:07:18;;;;;;;;;;;19.10;58.50;;;;;;5050382;28;1396;-70
2022/01/30 01:09:52;;;;;;;;;;;19.10;58.50;;;;;;5055601;28;1547;-71
2022/01/30 01:23:30;;;;;;;;;;;19.00;58.50;;;;;;5055813;28;1585;-70
2022/01/30 01:25:56;;;;;;;;;;;19.00;58.60;;;;;;5055547;28;1405;-72
2022/01/30 01:28:21;;;;;;;;;;;19.00;58.50;;;;;;5054254;28;1614;-70
2022/01/30 01:30:47;;;;;;;;;;;19.00;58.60;;;;;;5055346;28;1631;-70
2022/01/30 01:33:13;;;;;;;;;;;19.00;58.60;;;;;;5055417;28;1561;-71
2022/01/30 01:35:38;;;;;;;;;;;19.00;58.60;;;;;;5055213;28;1959;-70
2022/01/30 01:38:04;;;;;;;;;;;19.00;58.60;;;;;;5053826;28;1321;-70
2022/01/30 01:40:30;;;;;;;;;;;19.00;58.60;;;;;;5054296;28;1724;-70
2022/01/30 01:42:56;;;;;;;;;;;19.00;58.60;;;;;;5053607;28;1437;-70
2022/01/30 01:45:24;;;;;;;;;;;19.00;58.60;;;;;;5055054;28;1833;-70
2022/01/30 01:47:50;;;;;;;;;;;19.00;58.60;;;;;;5025797;28;1261;-69
2022/01/30 01:50:37;;;;;;;;;;;19.00;58.60;;;;;;5053581;28;1742;-68
2022/01/30 01:53:03;;;;;;;;;;;19.00;58.70;;;;;;5055150;28;1411;-70
2022/01/30 01:55:29;;;;;;;;;;;19.00;58.70;;;;;;5055162;28;1902;-70
2022/01/30 01:57:54;;;;;;;;;;;19.00;58.70;;;;;;5054724;28;1690;-70
2022/01/30 02:00:20;;;;;;;;;;;19.00;58.70;;;;;;5055403;28;1205;-68
2022/01/30 02:02:45;;;;;;;;;;;19.00;58.70;;;;;;5054378;28;1281;-72
2022/01/30 02:05:11;;;;;;;;;;;19.00;58.70;;;;;;5054730;28;1249;-71
2022/01/30 02:13:31;;;;;;;;;;;19.00;58.70;;;;;;5023173;28;1642;-68
2022/01/30 02:24:12;;;;;;;;;;;18.90;58.70;;;;;;5053655;28;1653;-71
2022/01/30 02:26:41;;;;;;;;;;;18.90;58.80;;;;;;5054534;28;1663;-71
2022/01/30 02:29:07;;;;;;;;;;;18.90;58.80;;;;;;5054213;28;1623;-72
2022/01/30 02:31:36;;;;;;;;;;;18.90;58.80;;;;;;5054256;28;1399;-71
2022/01/30 02:34:01;;;;;;;;;;;18.90;58.80;;;;;;5053306;28;1706;-70
2022/01/30 02:36:26;;;;;;;;;;;18.90;58.80;;;;;;5052890;28;1906;-70
2022/01/30 02:38:56;;;;;;;;;;;18.90;58.80;;;;;;5053970;28;1379;-70
2022/01/30 02:41:22;;;;;;;;;;;18.90;58.80;;;;;;5052924;28;1658;-70
2022/01/30 02:43:58;;;;;;;;;;;18.90;58.80;;;;;;5054245;28;1284;-68
2022/01/30 02:46:30;;;;;;;;;;;18.90;58.80;;;;;;5053694;28;1334;-70
2022/01/30 02:48:59;;;;;;;;;;;18.90;58.80;;;;;;5053669;28;1377;-70
2022/01/30 02:51:33;;;;;;;;;;;18.90;58.70;;;;;;5052561;28;1452;-72
2022/01/30 02:54:05;;;;;;;;;;;19.00;58.70;;;;;;5053948;28;1365;-72
2022/01/30 02:56:31;;;;;;;;;;;19.00;58.60;;;;;;5052788;28;1973;-72
2022/01/30 02:58:56;;;;;;;;;;;19.10;58.50;;;;;;5053755;28;1591;-71
2022/01/30 03:01:22;;;;;;;;;;;19.20;58.40;;;;;;5052381;28;1644;-71
2022/01/30 03:03:47;;;;;;;;;;;19.30;58.30;;;;;;5053725;28;1571;-72
2022/01/30 03:06:12;;;;;;;;;;;19.40;58.10;;;;;;5053614;28;1221;-71
2022/01/30 03:08:38;;;;;;;;;;;19.50;58.00;;;;;;5046713;28;1148;-71
2022/01/30 03:11:03;;;;;;;;;;;19.60;57.70;;;;;;5043952;28;1282;-71
2022/01/30 03:13:32;;;;;;;;;;;19.70;57.40;;;;;;5042781;28;1423;-71
2022/01/30 03:16:00;;;;;;;;;;;19.80;57.20;;;;;;5045419;28;1902;-70
2022/01/30 03:18:26;;;;;;;;;;;20.00;56.90;;;;;;5044782;28;1219;-71
2022/01/30 03:20:51;;;;;;;;;;;20.10;56.70;;;;;;5044490;28;1407;-71
2022/01/30 03:23:16;;;;;;;;;;;20.20;56.40;;;;;;5040767;28;1212;-71
2022/01/30 03:25:42;;;;;;;;;;;20.30;56.10;;;;;;5043366;28;1223;-72
2022/01/30 03:28:07;;;;;;;;;;;20.40;55.90;;;;;;5051762;28;1219;-70
2022/01/30 03:30:33;;;;;;;;;;;20.50;55.70;;;;;;5039478;28;1671;-72
2022/01/30 03:32:58;;;;;;;;;;;20.60;55.40;;;;;;5051215;28;1284;-72
2022/01/30 03:35:24;;;;;;;;;;;20.60;55.20;;;;;;5051728;28;1915;-72
2022/01/30 03:37:49;;;;;;;;;;;20.70;55.00;;;;;;5052856;28;1410;-72
2022/01/30 03:40:14;;;;;;;;;;;20.80;54.90;;;;;;5051701;28;1345;-71
2022/01/30 03:42:40;;;;;;;;;;;20.80;54.70;;;;;;5053052;28;1312;-72
2022/01/30 03:45:06;;;;;;;;;;;20.90;54.90;;;;;;5051616;28;1412;-71
2022/01/30 03:47:31;;;;;;;;;;;20.90;54.60;;;;;;5051332;28;1080;-72
2022/01/30 03:49:56;;;;;;;;;;;20.90;54.50;;;;;;5052832;28;1273;-71
2022/01/30 03:52:22;;;;;;;;;;;20.90;54.50;;;;;;5052739;28;1350;-72
2022/01/30 03:54:47;;;;;;;;;;;21.00;54.60;;;;;;5051679;28;1080;-71
2022/01/30 03:57:13;;;;;;;;;;;21.00;54.50;;;;;;5051300;28;1897;-68
2022/01/30 03:59:38;;;;;;;;;;;21.00;54.50;;;;;;5051707;28;980;-71
2022/01/30 04:02:04;;;;;;;;;;;21.00;54.50;;;;;;5051322;28;1342;-71
2022/01/30 04:04:31;;;;;;;;;;;21.00;54.50;;;;;;5056705;28;1352;-71
2022/01/30 04:06:57;;;;;;;;;;;21.00;54.40;;;;;;5058271;28;1087;-71
2022/01/30 04:09:23;;;;;;;;;;;21.00;54.40;;;;;;5058055;28;1163;-70
2022/01/30 04:11:48;;;;;;;;;;;20.90;54.90;;;;;;5059313;28;1290;-71
2022/01/30 04:14:14;;;;;;;;;;;21.00;54.40;;;;;;5059389;28;1385;-71
2022/01/30 04:16:39;;;;;;;;;;;21.00;54.40;;;;;;5059057;28;1972;-71
2022/01/30 04:19:05;;;;;;;;;;;20.90;54.40;;;;;;5059186;28;1059;-72
2022/01/30 04:21:31;;;;;;;;;;;20.90;54.40;;;;;;5059603;28;1216;-70
2022/01/30 04:23:56;;;;;;;;;;;20.90;54.50;;;;;;5058159;28;1385;-70
2022/01/30 04:26:22;;;;;;;;;;;20.90;54.60;;;;;;5059193;28;1028;-70
2022/01/30 04:28:47;;;;;;;;;;;20.90;54.60;;;;;;5058929;28;1370;-70
2022/01/30 04:31:13;;;;;;;;;;;20.90;54.60;;;;;;5057720;28;1361;-70
2022/01/30 04:33:38;;;;;;;;;;;20.80;54.60;;;;;;5059155;28;1379;-70
2022/01/30 04:36:07;;;;;;;;;;;20.80;54.60;;;;;;5059020;28;1909;-69
2022/01/30 04:38:50;;;;;;;;;;;20.80;54.70;;;;;;5057697;28;1436;-70
2022/01/30 04:41:36;;;;;;;;;;;20.80;54.70;;;;;;5058003;28;1400;-70
2022/01/30 04:52:28;;;;;;;;;;;20.80;54.90;;;;;;5059165;28;1307;-70
2022/01/30 04:56:04;;;;;;;;;;;20.70;54.90;;;;;;5059044;28;1067;-71
2022/01/30 05:03:26;;;;;;;;;;;20.70;55.00;;;;;;5058921;28;1255;-70
2022/01/30 05:06:01;;;;;;;;;;;20.70;55.10;;;;;;5058909;28;1436;-70
2022/01/30 05:08:27;;;;;;;;;;;20.60;55.00;;;;;;5058619;28;1158;-70
2022/01/30 05:10:53;;;;;;;;;;;20.70;55.10;;;;;;5057469;28;1691;-71
2022/01/30 05:13:22;;;;;;;;;;;20.60;55.10;;;;;;5058872;28;1114;-70
2022/01/30 05:15:47;;;;;;;;;;;20.60;55.10;;;;;;5056932;28;1910;-70
2022/01/30 05:18:20;;;;;;;;;;;20.60;55.20;;;;;;5055547;28;1075;-70
2022/01/30 05:20:45;;;;;;;;;;;20.60;55.20;;;;;;5054186;28;1358;-70
2022/01/30 05:23:11;;;;;;;;;;;20.60;55.20;;;;;;5055387;28;1087;-70
2022/01/30 05:25:37;;;;;;;;;;;20.60;55.30;;;;;;5054057;28;1395;-70
2022/01/30 05:28:06;;;;;;;;;;;20.60;55.30;;;;;;5055281;28;1360;-70
2022/01/30 05:30:32;;;;;;;;;;;20.60;55.30;;;;;;5055217;28;1320;-70
2022/01/30 05:32:57;;;;;;;;;;;20.60;55.40;;;;;;5055340;28;1255;-70
2022/01/30 05:35:23;;;;;;;;;;;20.60;55.40;;;;;;5051069;28;1909;-70
2022/01/30 05:37:48;;;;;;;;;;;20.50;55.30;;;;;;5053776;28;1087;-70
2022/01/30 05:40:14;;;;;;;;;;;20.50;55.40;;;;;;5055651;28;922;-70
2022/01/30 05:42:39;;;;;;;;;;;20.50;55.50;;;;;;5055365;28;1287;-71
2022/01/30 05:45:20;;;;;;;;;;;20.50;55.50;;;;;;5053938;28;1301;-70
2022/01/30 05:47:52;;;;;;;;;;;20.50;55.50;;;;;;5053728;28;1278;-70
2022/01/30 05:50:17;;;;;;;;;;;20.50;55.50;;;;;;5053608;28;1174;-70
2022/01/30 05:52:43;;;;;;;;;;;20.50;55.60;;;;;;5054202;28;1202;-71
2022/01/30 05:55:08;;;;;;;;;;;20.50;55.60;;;;;;5054895;28;1134;-70
2022/01/30 05:57:33;;;;;;;;;;;20.50;55.60;;;;;;5053418;28;1957;-70
2022/01/30 05:59:59;;;;;;;;;;;20.40;55.60;;;;;;5053569;28;1394;-71
2022/01/30 06:02:24;;;;;;;;;;;20.40;55.60;;;;;;5055039;28;1221;-70
2022/01/30 06:04:50;;;;;;;;;;;20.40;55.60;;;;;;5054384;28;1233;-70
2022/01/30 06:07:15;;;;;;;;;;;20.40;55.60;;;;;;5053199;28;1384;-70
2022/01/30 06:09:41;;;;;;;;;;;20.40;55.60;;;;;;5053286;28;1439;-70
2022/01/30 06:12:06;;;;;;;;;;;20.40;55.70;;;;;;5053373;28;1349;-70
2022/01/30 06:14:32;;;;;;;;;;;20.40;55.70;;;;;;5054879;28;1134;-70
2022/01/30 06:16:57;;;;;;;;;;;20.30;55.70;;;;;;5053398;28;2013;-70
2022/01/30 06:19:23;;;;;;;;;;;20.30;55.80;;;;;;5054136;28;1255;-70
2022/01/30 06:21:49;;;;;;;;;;;20.30;55.80;;;;;;5054179;28;1292;-70
2022/01/30 06:24:14;;;;;;;;;;;20.30;55.80;;;;;;5054503;28;1335;-70
2022/01/30 06:26:39;;;;;;;;;;;20.30;55.80;;;;;;5053833;28;1043;-70
2022/01/30 06:29:05;;;;;;;;;;;20.30;55.80;;;;;;5053914;28;1145;-69
2022/01/30 06:31:30;;;;;;;;;;;20.30;55.90;;;;;;5052925;28;1294;-69
2022/01/30 06:33:56;;;;;;;;;;;20.30;55.90;;;;;;5053963;28;1270;-70
2022/01/30 06:36:21;;;;;;;;;;;20.30;55.90;;;;;;5054190;28;1973;-70
2022/01/30 06:38:47;;;;;;;;;;;20.30;55.90;;;;;;5053280;28;1286;-70
2022/01/30 06:41:13;;;;;;;;;;;20.30;55.90;;;;;;5053990;28;1199;-70
2022/01/30 06:43:38;;;;;;;;;;;20.20;55.90;;;;;;5054115;28;1377;-71
2022/01/30 06:46:03;;;;;;;;;;;20.20;56.00;;;;;;5053006;28;1072;-70
2022/01/30 06:48:29;;;;;;;;;;;20.20;56.00;;;;;;5053495;28;1115;-69
2022/01/30 06:50:54;;;;;;;;;;;20.20;56.00;;;;;;5053749;28;1315;-70
2022/01/30 06:53:20;;;;;;;;;;;20.20;56.00;;;;;;5053896;28;2051;-70
2022/01/30 06:55:45;;;;;;;;;;;20.20;56.00;;;;;;5052582;28;1902;-69
2022/01/30 06:58:14;;;;;;;;;;;20.20;56.10;;;;;;5053606;28;1052;-70
2022/01/30 07:00:39;;;;;;;;;;;20.20;56.10;;;;;;5035856;28;1322;-70
2022/01/30 07:03:04;;;;;;;;;;;20.20;56.10;;;;;;5053406;28;1152;-70
2022/01/30 07:05:30;;;;;;;;;;;20.20;56.20;;;;;;5054065;28;1147;-69
2022/01/30 07:07:55;;;;;;;;;;;20.20;56.20;;;;;;5053322;28;1424;-69
2022/01/30 07:10:21;;;;;;;;;;;20.10;56.20;;;;;;5035897;28;1326;-70
2022/01/30 07:12:46;;;;;;;;;;;20.10;56.20;;;;;;5053366;28;1286;-69
2022/01/30 07:15:12;;;;;;;;;;;20.10;56.20;;;;;;5045744;28;1833;-68
2022/01/30 07:17:37;;;;;;;;;;;20.10;56.20;;;;;;5052522;28;1961;-69
2022/01/30 07:20:03;;;;;;;;;;;20.10;56.20;;;;;;5051659;28;1130;-69
2022/01/30 07:22:29;;;;;;;;;;;20.10;56.30;;;;;;5052200;28;1277;-69
2022/01/30 07:24:54;;;;;;;;;;;20.10;56.30;;;;;;5052158;28;1048;-70
2022/01/30 07:27:20;;;;;;;;;;;20.10;56.30;;;;;;5051921;28;1341;-69
2022/01/30 07:29:45;;;;;;;;;;;20.10;56.30;;;;;;5053004;28;1306;-69
2022/01/30 07:32:11;;;;;;;;;;;20.10;56.30;;;;;;5053009;28;1227;-69
2022/01/30 07:34:36;;;;;;;;;;;20.10;56.40;;;;;;5052812;28;1296;-69
2022/01/30 07:37:02;;;;;;;;;;;20.10;56.40;;;;;;5050191;28;1914;-68
2022/01/30 07:39:30;;;;;;;;;;;20.10;56.40;;;;;;5056714;28;1271;-68
2022/01/30 07:41:55;;;;;;;;;;;20.10;56.40;;;;;;5054446;28;1300;-66
2022/01/30 07:44:20;;;;;;;;;;;20.00;56.40;;;;;;5052914;28;1270;-68
2022/01/30 07:46:46;;;;;;;;;;;20.00;56.40;;;;;;5052713;28;1305;-66
2022/01/30 07:49:11;;;;;;;;;;;20.00;56.40;;;;;;5051582;28;1091;-67
2022/01/30 07:51:37;;;;;;;;;;;20.00;56.40;;;;;;5051425;28;1265;-68
2022/01/30 07:54:02;;;;;;;;;;;20.00;56.40;;;;;;5049637;28;2035;-67
2022/01/30 07:56:28;;;;;;;;;;;20.00;56.50;;;;;;5048556;28;1898;-69
2022/01/30 07:58:53;;;;;;;;;;;20.00;56.50;;;;;;5051257;28;1950;-69
2022/01/30 08:01:19;;;;;;;;;;;20.00;56.50;;;;;;5048766;28;1989;-68
2022/01/30 08:03:44;;;;;;;;;;;20.00;56.50;;;;;;5051291;28;1111;-68
2022/01/30 08:06:09;;;;;;;;;;;20.00;56.40;;;;;;5050825;28;2298;-69
2022/01/30 08:08:35;;;;;;;;;;;20.10;56.40;;;;;;5052800;28;1054;-69
2022/01/30 08:11:00;;;;;;;;;;;20.20;56.20;;;;;;5048214;28;1384;-69
2022/01/30 08:13:26;;;;;;;;;;;20.30;56.10;;;;;;5043387;28;1085;-68
2022/01/30 08:15:51;;;;;;;;;;;20.40;56.00;;;;;;5049010;28;1890;-68
2022/01/30 08:18:16;;;;;;;;;;;20.50;55.80;;;;;;5052268;28;1312;-68
2022/01/30 08:20:42;;;;;;;;;;;20.60;55.60;;;;;;5052606;28;1060;-69
2022/01/30 08:23:12;;;;;;;;;;;20.60;55.40;;;;;;5052565;28;1280;-69
2022/01/30 08:25:37;;;;;;;;;;;20.70;55.20;;;;;;5051385;28;1137;-68
2022/01/30 08:28:03;;;;;;;;;;;20.80;55.00;;;;;;5052602;28;1525;-68
2022/01/30 08:30:28;;;;;;;;;;;20.90;54.80;;;;;;5052456;28;1177;-69
2022/01/30 08:32:54;;;;;;;;;;;21.00;54.70;;;;;;5051029;28;1321;-69
2022/01/30 08:35:20;;;;;;;;;;;21.00;55.20;;;;;;5051220;28;1332;-68
2022/01/30 08:37:46;;;;;;;;;;;21.00;54.50;;;;;;5052243;28;1906;-69
2022/01/30 08:40:12;;;;;;;;;;;21.10;54.40;;;;;;5052546;28;1161;-69
2022/01/30 08:42:37;;;;;;;;;;;21.10;54.40;;;;;;5051253;28;1402;-69
2022/01/30 08:45:04;;;;;;;;;;;21.10;54.30;;;;;;5052612;28;1250;-69
2022/01/30 08:47:29;;;;;;;;;;;21.10;54.30;;;;;;5050712;28;1248;-69
2022/01/30 08:49:54;;;;;;;;;;;21.10;54.20;;;;;;5051563;28;1353;-69
2022/01/30 08:52:20;;;;;;;;;;;21.10;54.20;;;;;;5054776;28;1303;-68
2022/01/30 08:54:46;;;;;;;;;;;21.10;54.10;;;;;;5056159;28;1384;-68
2022/01/30 08:57:12;;;;;;;;;;;21.10;54.10;;;;;;5055817;28;1955;-69
2022/01/30 08:59:37;;;;;;;;;;;21.10;54.10;;;;;;5054802;28;1302;-69
2022/01/30 09:02:03;;;;;;;;;;;21.10;54.10;;;;;;5054467;28;1314;-68
2022/01/30 09:04:28;;;;;;;;;;;21.10;54.20;;;;;;5055840;28;1066;-69
2022/01/30 09:06:54;;;;;;;;;;;21.10;54.20;;;;;;5055806;28;1270;-69
2022/01/30 09:09:19;;;;;;;;;;;21.10;54.20;;;;;;5055447;28;1146;-68
2022/01/30 09:11:44;;;;;;;;;;;21.00;54.20;;;;;;5055675;28;1364;-69
2022/01/30 09:14:10;;;;;;;;;;;21.10;54.30;;;;;;5054519;28;1066;-68
2022/01/30 09:16:35;;;;;;;;;;;21.10;54.40;;;;;;5055238;28;1955;-69
2022/01/30 09:19:01;;;;;;;;;;;21.10;54.40;;;;;;5055284;28;1267;-69
2022/01/30 09:21:28;;;;;;;;;;;21.00;54.40;;;;;;5055434;28;1365;-68
2022/01/30 09:23:54;;;;;;;;;;;21.00;54.40;;;;;;5055582;28;1338;-69
2022/01/30 09:26:19;;;;;;;;;;;21.00;54.50;;;;;;5054257;28;1096;-69
2022/01/30 09:28:45;;;;;;;;;;;21.00;54.50;;;;;;5055102;28;1096;-69
2022/01/30 09:31:10;;;;;;;;;;;21.00;54.60;;;;;;5053874;28;1346;-69
2022/01/30 09:33:36;;;;;;;;;;;21.00;54.60;;;;;;5054178;28;1262;-69
2022/01/30 09:36:01;;;;;;;;;;;21.00;54.70;;;;;;5055137;28;1963;-69
2022/01/30 09:38:27;;;;;;;;;;;20.90;54.70;;;;;;5055015;28;1353;-70
2022/01/30 09:40:53;;;;;;;;;;;20.90;54.60;;;;;;5055520;28;1321;-69
2022/01/30 09:43:18;;;;;;;;;;;20.90;54.70;;;;;;5053918;28;1285;-69
2022/01/30 09:45:44;;;;;;;;;;;20.90;54.70;;;;;;5054145;28;1413;-68
2022/01/30 09:48:09;;;;;;;;;;;20.90;54.80;;;;;;5053511;28;1400;-69
2022/01/30 09:50:35;;;;;;;;;;;20.90;54.80;;;;;;5053955;28;1362;-68
2022/01/30 09:53:00;;;;;;;;;;;20.80;54.80;;;;;;5053748;28;1235;-68
2022/01/30 09:55:26;;;;;;;;;;;20.80;54.90;;;;;;5054983;28;1314;-69
2022/01/30 09:57:53;;;;;;;;;;;20.80;54.90;;;;;;5053542;28;1949;-69
2022/01/30 10:00:18;;;;;;;;;;;20.80;54.90;;;;;;5054689;28;1406;-69
2022/01/30 10:02:44;;;;;;;;;;;20.80;55.00;;;;;;5052535;28;1275;-69
2022/01/30 10:05:13;;;;;;;;;;;20.80;55.00;;;;;;5053461;28;1342;-69
2022/01/30 10:07:57;;;;;;;;;;;20.80;55.00;;;;;;5053172;28;1362;-70
2022/01/30 10:10:29;;;;;;;;;;;20.80;55.10;;;;;;5037429;28;1594;-69
2022/01/30 10:13:01;;;;;;;;;;;20.70;55.10;;;;;;5053530;28;1354;-69
2022/01/30 10:15:27;;;;;;;;;;;20.70;55.10;;;;;;5054701;28;1393;-69
2022/01/30 10:17:52;;;;;;;;;;;20.70;55.20;;;;;;5053011;28;1351;-69
2022/01/30 10:20:22;;;;;;;;;;;20.70;55.10;;;;;;5053395;28;1057;-70
2022/01/30 10:23:01;;;;;;;;;;;20.70;55.20;;;;;;5085763;22;1690;-66
2022/01/30 10:25:26;;;;;;;;;;;20.70;55.10;;;;;;5074398;28;908;-67
2022/01/30 10:28:03;;;;;;;;;;;20.70;55.10;;;;;;5074078;28;1372;-66
2022/01/30 10:30:28;;;;;;;;;;;20.60;55.20;;;;;;5073097;28;1232;-67
2022/01/30 10:32:55;;;;;;;;;;;20.60;55.20;;;;;;5060253;28;1356;-66
2022/01/30 10:35:21;;;;;;;;;;;20.60;55.20;;;;;;5053028;28;1290;-66
2022/01/30 10:37:46;;;;;;;;;;;20.70;55.30;;;;;;5052563;28;1914;-66
2022/01/30 10:40:23;;;;;;;;;;;20.70;55.20;;;;;;5054072;28;1415;-66
2022/01/30 10:42:48;;;;;;;;;;;20.70;55.20;;;;;;5054032;28;1353;-66
2022/01/30 10:45:30;;;;;;;;;;;20.70;55.10;;;;;;5054154;28;1126;-66
2022/01/30 10:48:08;;;;;;;;;;;20.80;55.10;;;;;;5053743;28;1288;-66
2022/01/30 10:50:33;;;;;;;;;;;20.80;55.00;;;;;;5053937;28;1266;-67
2022/01/30 10:53:02;;;;;;;;;;;20.90;55.00;;;;;;5053620;28;1297;-66
2022/01/30 10:55:41;;;;;;;;;;;20.90;54.80;;;;;;5054067;28;1341;-66
2022/01/30 10:58:07;;;;;;;;;;;20.90;54.70;;;;;;5053508;28;1148;-67
2022/01/30 11:00:39;;;;;;;;;;;21.00;54.70;;;;;;5053818;28;1406;-66
2022/01/30 11:03:05;;;;;;;;;;;21.00;54.60;;;;;;5053720;28;1344;-66
2022/01/30 11:05:33;;;;;;;;;;;21.00;54.60;;;;;;5053712;28;1063;-66
2022/01/30 11:07:58;;;;;;;;;;;21.00;54.50;;;;;;5053427;28;1396;-66
2022/01/30 11:10:26;;;;;;;;;;;21.10;54.50;;;;;;5053545;28;1401;-67
2022/01/30 11:13:07;;;;;;;;;;;21.10;54.50;;;;;;5053841;28;1408;-66
2022/01/30 11:15:37;;;;;;;;;;;21.10;54.50;;;;;;5053021;28;1967;-66
2022/01/30 11:18:06;;;;;;;;;;;21.10;54.50;;;;;;5053389;28;1381;-66
2022/01/30 11:20:32;;;;;;;;;;;21.10;54.50;;;;;;5052571;28;2031;-66
2022/01/30 11:23:01;;;;;;;;;;;21.10;54.50;;;;;;5050463;28;2137;-67
2022/01/30 11:25:27;;;;;;;;;;;21.00;54.70;;;;;;5042653;28;988;-66
2022/01/30 11:27:53;;;;;;;;;;;21.00;54.60;;;;;;5050657;28;1230;-67
2022/01/30 11:30:20;;;;;;;;;;;21.00;54.70;;;;;;5050811;28;1493;-66
2022/01/30 11:32:45;;;;;;;;;;;21.00;54.40;;;;;;5052090;28;1276;-67
2022/01/30 11:35:11;;;;;;;;;;;20.90;54.60;;;;;;5050935;28;1262;-66
2022/01/30 11:37:37;;;;;;;;;;;20.90;54.40;;;;;;5050862;28;1991;-67
2022/01/30 11:40:28;;;;;;;;;;;21.00;54.50;;;;;;5050789;28;989;-67
2022/01/30 11:42:54;;;;;;;;;;;20.90;54.30;;;;;;5049700;28;1465;-67
2022/01/30 11:45:29;;;;;;;;;;;20.90;54.30;;;;;;5051763;28;1119;-67
2022/01/30 11:48:04;;;;;;;;;;;20.90;54.50;;;;;;5050539;28;1076;-67
2022/01/30 11:50:30;;;;;;;;;;;20.90;54.80;;;;;;5053005;28;1142;-66
2022/01/30 11:53:15;;;;;;;;;;;20.80;55.00;;;;;;5051350;28;1332;-67
2022/01/30 11:55:49;;;;;;;;;;;20.80;55.00;;;;;;5042242;28;1910;-67
2022/01/30 11:58:30;;;;;;;;;;;20.80;54.80;;;;;;5051287;28;1362;-67
2022/01/30 12:00:56;;;;;;;;;;;20.80;54.80;;;;;;5052835;28;1106;-67
2022/01/30 12:03:25;;;;;;;;;;;20.80;54.80;;;;;;5051454;28;1311;-67
2022/01/30 12:05:51;;;;;;;;;;;20.80;54.80;;;;;;5051506;28;1409;-67
2022/01/30 12:08:35;;;;;;;;;;;20.80;54.80;;;;;;5052622;28;1197;-67
2022/01/30 12:11:00;;;;;;;;;;;20.80;54.80;;;;;;5052682;28;1341;-67
2022/01/30 12:13:41;;;;;;;;;;;20.80;54.90;;;;;;5051335;28;1297;-66
2022/01/30 12:16:07;;;;;;;;;;;20.80;54.90;;;;;;5051546;28;1895;-67
2022/01/30 12:18:44;;;;;;;;;;;20.80;54.90;;;;;;5052492;28;1059;-67
2022/01/30 12:21:13;;;;;;;;;;;20.80;54.90;;;;;;5052712;28;1279;-67
2022/01/30 12:23:39;;;;;;;;;;;20.80;54.90;;;;;;5035020;28;1333;-67
2022/01/30 12:26:05;;;;;;;;;;;20.80;55.50;;;;;;5054065;28;1355;-67
2022/01/30 12:28:39;;;;;;;;;;;20.80;54.90;;;;;;5055990;28;1274;-67
2022/01/30 12:31:23;;;;;;;;;;;20.90;54.90;;;;;;5044966;28;1085;-66
2022/01/30 12:33:48;;;;;;;;;;;20.90;54.90;;;;;;5056684;28;1371;-67
2022/01/30 12:36:17;;;;;;;;;;;20.90;54.80;;;;;;5056587;28;1898;-66
2022/01/30 12:38:43;;;;;;;;;;;20.90;54.80;;;;;;5056236;28;1242;-66
2022/01/30 12:41:12;;;;;;;;;;;20.90;54.80;;;;;;5055489;28;1334;-67
2022/01/30 12:43:38;;;;;;;;;;;20.90;54.80;;;;;;5056441;28;1265;-66
2022/01/30 12:46:04;;;;;;;;;;;20.90;54.80;;;;;;5056523;28;1059;-67
2022/01/30 12:48:30;;;;;;;;;;;20.90;54.80;;;;;;5054894;28;1417;-66
2022/01/30 12:50:58;;;;;;;;;;;20.90;54.60;;;;;;5037473;28;2151;-66
2022/01/30 12:53:23;;;;;;;;;;;20.90;54.30;;;;;;5041871;28;1290;-67
2022/01/30 12:55:49;;;;;;;;;;;20.90;54.50;;;;;;5050723;28;1894;-66
2022/01/30 12:58:14;;;;;;;;;;;20.90;54.60;;;;;;5053531;28;1327;-67
2022/01/30 13:00:40;;;;;;;;;;;20.90;54.60;;;;;;5056004;28;1354;-67
2022/01/30 13:03:05;;;;;;;;;;;20.80;54.60;;;;;;5055952;28;1348;-67
2022/01/30 13:05:31;;;;;;;;;;;20.90;54.70;;;;;;5050873;28;1572;-67
2022/01/30 13:07:57;;;;;;;;;;;20.80;54.60;;;;;;5054080;28;1359;-66
2022/01/30 13:10:23;;;;;;;;;;;20.80;54.70;;;;;;5056294;28;1087;-67
2022/01/30 13:12:48;;;;;;;;;;;20.80;54.70;;;;;;5055654;28;1323;-68
2022/01/30 13:15:14;;;;;;;;;;;20.80;54.70;;;;;;5054172;28;1052;-69
2022/01/30 13:17:40;;;;;;;;;;;20.80;54.80;;;;;;5055441;28;1902;-68
2022/01/30 13:20:06;;;;;;;;;;;20.80;54.80;;;;;;5055854;28;1351;-68
2022/01/30 13:22:37;;;;;;;;;;;20.80;54.80;;;;;;5055657;28;1380;-68
2022/01/30 13:25:09;;;;;;;;;;;20.80;54.90;;;;;;5055862;28;1051;-68
2022/01/30 13:27:41;;;;;;;;;;;20.80;54.90;;;;;;5054174;28;1346;-68
2022/01/30 13:30:07;;;;;;;;;;;20.80;54.90;;;;;;5054476;28;1280;-68
2022/01/30 13:32:32;;;;;;;;;;;20.80;54.90;;;;;;5055416;28;1282;-68
2022/01/30 13:34:58;;;;;;;;;;;20.80;55.00;;;;;;5055197;28;1341;-68
2022/01/30 13:37:24;;;;;;;;;;;20.80;55.00;;;;;;5053635;28;1910;-68
2022/01/30 13:42:36;;;;;;;;;;;20.70;55.00;;;;;;5055379;28;1223;-68
2022/01/30 13:47:56;;;;;;;;;;;20.70;55.10;;;;;;5055260;28;1061;-67
2022/01/30 13:50:22;;;;;;;;;;;20.70;55.00;;;;;;5053995;28;1378;-68
2022/01/30 13:52:48;;;;;;;;;;;20.70;55.10;;;;;;5052934;28;2207;-68
2022/01/30 13:55:13;;;;;;;;;;;20.70;55.10;;;;;;5053630;28;1460;-68
2022/01/30 13:57:39;;;;;;;;;;;20.70;55.10;;;;;;5052025;28;1969;-67
2022/01/30 14:00:08;;;;;;;;;;;20.70;55.10;;;;;;5053552;28;1004;-67
2022/01/30 14:02:33;;;;;;;;;;;20.70;55.20;;;;;;5053760;28;2036;-66
2022/01/30 14:05:18;;;;;;;;;;;20.70;55.20;;;;;;5053614;28;1294;-67
2022/01/30 14:07:43;;;;;;;;;;;20.60;55.20;;;;;;5049832;28;1712;-67
2022/01/30 14:10:08;;;;;;;;;;;20.70;55.20;;;;;;5054962;28;1652;-67
2022/01/30 14:12:39;;;;;;;;;;;20.60;55.20;;;;;;5053386;28;1624;-67
2022/01/30 14:15:09;;;;;;;;;;;20.60;55.30;;;;;;5054331;28;1569;-66
2022/01/30 14:17:40;;;;;;;;;;;20.60;55.30;;;;;;5054670;28;1969;-67
2022/01/30 14:20:08;;;;;;;;;;;20.60;55.30;;;;;;5054877;28;1600;-67
2022/01/30 14:22:34;;;;;;;;;;;20.60;55.30;;;;;;5054737;28;1710;-66
2022/01/30 14:25:05;;;;;;;;;;;20.60;55.40;;;;;;5053950;28;2237;-67
2022/01/30 14:27:33;;;;;;;;;;;20.60;55.40;;;;;;5052758;28;1426;-67
2022/01/30 14:30:01;;;;;;;;;;;20.60;55.40;;;;;;5041964;28;1650;-67
2022/01/30 14:32:33;;;;;;;;;;;20.60;55.50;;;;;;5052753;28;1457;-67
2022/01/30 14:34:59;;;;;;;;;;;20.60;55.50;;;;;;5049949;28;1601;-67
2022/01/30 14:37:24;;;;;;;;;;;20.60;55.50;;;;;;5053852;28;1910;-67
2022/01/30 14:40:08;;;;;;;;;;;20.50;55.50;;;;;;5053239;28;1575;-66
2022/01/30 14:42:34;;;;;;;;;;;20.50;55.50;;;;;;5052950;28;1604;-66
2022/01/30 14:44:59;;;;;;;;;;;20.50;55.60;;;;;;5054393;28;1366;-67
2022/01/30 14:47:25;;;;;;;;;;;20.50;55.60;;;;;;5053747;28;1440;-67
2022/01/30 14:49:50;;;;;;;;;;;20.50;55.60;;;;;;5052289;28;1592;-66
2022/01/30 14:52:16;;;;;;;;;;;20.50;55.60;;;;;;5054001;28;1427;-67
2022/01/30 14:54:42;;;;;;;;;;;20.50;55.70;;;;;;5054202;28;1672;-67
2022/01/30 14:57:07;;;;;;;;;;;20.40;55.60;;;;;;5053851;28;1907;-67
2022/01/30 14:59:33;;;;;;;;;;;20.50;55.70;;;;;;5054257;28;1370;-67
2022/01/30 15:01:58;;;;;;;;;;;20.50;55.70;;;;;;5053966;28;1361;-67
2022/01/30 15:04:24;;;;;;;;;;;20.40;55.70;;;;;;5053924;28;1375;-67
2022/01/30 15:06:49;;;;;;;;;;;20.40;55.70;;;;;;5053725;28;1341;-67
2022/01/30 15:09:15;;;;;;;;;;;20.40;55.80;;;;;;5053491;28;1458;-67
2022/01/30 15:11:40;;;;;;;;;;;20.40;55.80;;;;;;5053761;28;1423;-66
2022/01/30 15:14:06;;;;;;;;;;;20.40;55.80;;;;;;5053585;28;1455;-67
2022/01/30 15:16:49;;;;;;;;;;;20.40;55.80;;;;;;5053563;28;1894;-67
2022/01/30 15:19:16;;;;;;;;;;;20.40;55.80;;;;;;5053372;28;1671;-67